Terminal Aerodrome Forecast
Issued by NWS Twin Cities, MN

Home | Current Version | Previous Version | Text Only | Print | Product List | Glossary Off
Versions: 1 2 3 4 5 6 7 8 9 10 11 12 13 14 15 16 17 18 19 20 21 22 23 24 25 26

000
FTUS43 KMPX 302330
TAFMSP
TAF
KMSP 302330Z 3100/0106 07007KT P6SM SKC
     FM310400 VRB03KT P6SM SKC
     FM311000 28007KT P6SM FEW090
     FM311600 30013G20KT P6SM SCT090
     FM312200 31010KT P6SM BKN090=

USA.gov is the U.S. government's official web portal to all federal, state and local government web resources and services.